AFR608 TFFR-TNCM
Flight info
| Callsign | AFR608 |
|---|---|
| Flight time | N/A |
| Altitude | 20000 |
| Route | BIMBO2F BIMBO A517 ZPATA |
| Aircraft | A320/M-SDE3FGHIRWY/LB1 |
Departure
| Time | 2026-05-07 08:16 |
|---|---|
| Airport | Maryse Condé International Airport (TFFR) |
Arrival
| Time | N/A |
|---|---|
| Airport | Princess Juliana International Airport (TNCM) |
| Time | Latitude | Longitude | Altitude | Speed | Heading |
|---|---|---|---|---|---|
| 2026-05-07 07:56 | 16.26946 | -61.52821 | 57 ft | 0 kts | 10° |
| 2026-05-07 08:09 | 16.26934 | -61.52823 | 30 ft | 2 kts | 10° |
| 2026-05-07 08:09 | 16.26917 | -61.52826 | 30 ft | 2 kts | 10° |
| 2026-05-07 08:09 | 16.26902 | -61.52829 | 30 ft | 2 kts | 333° |
| 2026-05-07 08:09 | 16.26891 | -61.52817 | 30 ft | 2 kts | 286° |
| 2026-05-07 08:11 | 16.26891 | -61.52819 | 30 ft | 2 kts | 286° |
| 2026-05-07 08:11 | 16.26889 | -61.52886 | 30 ft | 11 kts | 238° |
| 2026-05-07 08:11 | 16.26826 | -61.52932 | 30 ft | 14 kts | 197° |
| 2026-05-07 08:11 | 16.26670 | -61.52959 | 30 ft | 29 kts | 189° |
| 2026-05-07 08:12 | 16.26516 | -61.53008 | 29 ft | 20 kts | 232° |
| 2026-05-07 08:12 | 16.26520 | -61.53137 | 30 ft | 17 kts | 280° |
| 2026-05-07 08:12 | 16.26542 | -61.53256 | 30 ft | 16 kts | 281° |
| 2026-05-07 08:12 | 16.26563 | -61.53366 | 31 ft | 15 kts | 281° |
| 2026-05-07 08:13 | 16.26582 | -61.53465 | 31 ft | 13 kts | 281° |
| 2026-05-07 08:13 | 16.26598 | -61.53552 | 33 ft | 12 kts | 281° |
| 2026-05-07 08:13 | 16.26616 | -61.53649 | 33 ft | 14 kts | 281° |
| 2026-05-07 08:13 | 16.26636 | -61.53760 | 32 ft | 21 kts | 281° |
| 2026-05-07 08:14 | 16.26664 | -61.53911 | 31 ft | 21 kts | 281° |
| 2026-05-07 08:14 | 16.26689 | -61.54053 | 31 ft | 19 kts | 280° |
| 2026-05-07 08:14 | 16.26714 | -61.54191 | 30 ft | 21 kts | 281° |
| 2026-05-07 08:14 | 16.26737 | -61.54306 | 30 ft | 25 kts | 281° |
| 2026-05-07 08:15 | 16.26722 | -61.54382 | 29 ft | 1 kts | 354° |
| 2026-05-07 08:15 | 16.26741 | -61.54343 | 30 ft | 9 kts | 97° |
| 2026-05-07 08:15 | 16.26714 | -61.54194 | 30 ft | 54 kts | 101° |
| 2026-05-07 08:15 | 16.26642 | -61.53804 | 32 ft | 105 kts | 101° |
| 2026-05-07 08:16 | 16.26409 | -61.52546 | 449 ft | 143 kts | 101° |
| 2026-05-07 08:16 | 16.26288 | -61.51862 | 888 ft | 146 kts | 98° |
| 2026-05-07 08:16 | 16.26094 | -61.50807 | 1619 ft | 146 kts | 101° |
| 2026-05-07 08:16 | 16.25895 | -61.49737 | 2129 ft | 162 kts | 99° |
| 2026-05-07 08:17 | 16.25667 | -61.48508 | 2476 ft | 184 kts | 100° |
| 2026-05-07 08:17 | 16.25405 | -61.47103 | 2843 ft | 210 kts | 100° |
| 2026-05-07 08:17 | 16.25114 | -61.45526 | 3338 ft | 234 kts | 99° |
| 2026-05-07 08:17 | 16.24791 | -61.43779 | 3946 ft | 254 kts | 100° |
| 2026-05-07 08:18 | 16.24623 | -61.41924 | 4776 ft | 264 kts | 81° |
| 2026-05-07 08:18 | 16.25402 | -61.40190 | 5582 ft | 273 kts | 47° |
| 2026-05-07 08:18 | 16.27031 | -61.39175 | 6451 ft | 280 kts | 13° |
| 2026-05-07 08:18 | 16.28975 | -61.39250 | 7283 ft | 285 kts | 342° |
| 2026-05-07 08:19 | 16.30794 | -61.40105 | 8180 ft | 289 kts | 333° |
| 2026-05-07 08:19 | 16.32591 | -61.41071 | 9074 ft | 292 kts | 333° |
| 2026-05-07 08:19 | 16.34408 | -61.42049 | 9951 ft | 296 kts | 333° |
| 2026-05-07 08:19 | 16.36280 | -61.43058 | 10428 ft | 314 kts | 333° |
| 2026-05-07 08:20 | 16.38332 | -61.44031 | 10807 ft | 331 kts | 340° |
| 2026-05-07 08:20 | 16.40542 | -61.44784 | 11510 ft | 336 kts | 345° |
| 2026-05-07 08:20 | 16.42810 | -61.45416 | 12292 ft | 339 kts | 347° |
| 2026-05-07 08:20 | 16.45100 | -61.46007 | 13151 ft | 339 kts | 347° |
| 2026-05-07 08:21 | 16.47396 | -61.46602 | 13938 ft | 342 kts | 346° |
| 2026-05-07 08:21 | 16.49691 | -61.47295 | 14594 ft | 346 kts | 338° |
| 2026-05-07 08:21 | 16.51781 | -61.48551 | 15273 ft | 351 kts | 322° |
| 2026-05-07 08:21 | 16.53468 | -61.50402 | 15969 ft | 356 kts | 307° |
| 2026-05-07 08:22 | 16.54608 | -61.52716 | 16645 ft | 363 kts | 291° |
| 2026-05-07 08:22 | 16.55180 | -61.55293 | 17328 ft | 368 kts | 283° |
| 2026-05-07 08:22 | 16.55658 | -61.57921 | 18015 ft | 371 kts | 283° |
| 2026-05-07 08:22 | 16.56138 | -61.60546 | 18630 ft | 374 kts | 283° |
| 2026-05-07 08:23 | 16.56629 | -61.63217 | 19191 ft | 377 kts | 283° |
| 2026-05-07 08:23 | 16.57127 | -61.65915 | 19742 ft | 381 kts | 283° |
| 2026-05-07 08:23 | 16.57629 | -61.68633 | 19976 ft | 383 kts | 283° |
| 2026-05-07 08:23 | 16.58129 | -61.71341 | 20043 ft | 374 kts | 283° |
| 2026-05-07 08:24 | 16.58615 | -61.73979 | 20054 ft | 368 kts | 283° |
| 2026-05-07 08:24 | 16.59100 | -61.76596 | 20054 ft | 366 kts | 283° |
| 2026-05-07 08:24 | 16.59582 | -61.79200 | 20054 ft | 366 kts | 283° |
| 2026-05-07 08:24 | 16.60061 | -61.81802 | 20054 ft | 366 kts | 283° |
| 2026-05-07 08:25 | 16.60538 | -61.84406 | 20052 ft | 366 kts | 283° |
| 2026-05-07 08:25 | 16.61014 | -61.87011 | 20054 ft | 366 kts | 283° |
| 2026-05-07 08:25 | 16.61491 | -61.89614 | 20060 ft | 366 kts | 283° |
| 2026-05-07 08:25 | 16.61967 | -61.92218 | 20067 ft | 366 kts | 283° |
| 2026-05-07 08:26 | 16.63777 | -61.97087 | 20072 ft | 360 kts | 305° |
| 2026-05-07 08:26 | 16.65317 | -61.99129 | 20080 ft | 358 kts | 314° |
| 2026-05-07 08:26 | 16.66980 | -62.01059 | 20086 ft | 358 kts | 314° |
| 2026-05-07 08:27 | 16.68641 | -62.02989 | 20091 ft | 358 kts | 313° |
| 2026-05-07 08:27 | 16.70304 | -62.04925 | 20097 ft | 358 kts | 313° |
| 2026-05-07 08:27 | 16.71965 | -62.06863 | 20103 ft | 358 kts | 313° |
| 2026-05-07 08:27 | 16.73624 | -62.08801 | 20112 ft | 358 kts | 313° |
| 2026-05-07 08:28 | 16.75281 | -62.10735 | 20121 ft | 357 kts | 313° |
| 2026-05-07 08:28 | 16.76937 | -62.12669 | 20122 ft | 357 kts | 313° |
| 2026-05-07 08:28 | 16.78593 | -62.14606 | 20123 ft | 357 kts | 313° |
| 2026-05-07 08:28 | 16.80247 | -62.16540 | 20123 ft | 357 kts | 313° |
| 2026-05-07 08:29 | 16.81899 | -62.18476 | 20122 ft | 357 kts | 313° |
| 2026-05-07 08:29 | 16.83531 | -62.20386 | 20122 ft | 357 kts | 313° |
| 2026-05-07 08:29 | 16.85204 | -62.22343 | 20122 ft | 357 kts | 313° |
| 2026-05-07 08:29 | 16.86857 | -62.24276 | 20120 ft | 357 kts | 313° |
| 2026-05-07 08:30 | 16.88490 | -62.26185 | 20068 ft | 357 kts | 313° |
| 2026-05-07 08:30 | 16.90142 | -62.28114 | 20068 ft | 357 kts | 313° |
| 2026-05-07 08:30 | 16.91794 | -62.30045 | 20065 ft | 357 kts | 313° |
| 2026-05-07 08:30 | 16.93448 | -62.31985 | 20065 ft | 357 kts | 313° |
| 2026-05-07 08:31 | 16.95096 | -62.33919 | 20068 ft | 357 kts | 313° |
| 2026-05-07 08:31 | 16.96744 | -62.35854 | 20070 ft | 357 kts | 313° |
| 2026-05-07 08:31 | 16.98392 | -62.37788 | 20073 ft | 356 kts | 313° |
| 2026-05-07 08:31 | 17.00045 | -62.39726 | 20075 ft | 356 kts | 313° |
| 2026-05-07 08:32 | 17.01692 | -62.41660 | 20078 ft | 356 kts | 313° |
| 2026-05-07 08:32 | 17.03341 | -62.43598 | 20081 ft | 356 kts | 313° |
| 2026-05-07 08:32 | 17.04988 | -62.45533 | 20082 ft | 356 kts | 313° |
| 2026-05-07 08:32 | 17.06636 | -62.47470 | 20084 ft | 356 kts | 313° |
| 2026-05-07 08:33 | 17.08285 | -62.49403 | 20084 ft | 356 kts | 313° |
| 2026-05-07 08:33 | 17.09936 | -62.51338 | 20088 ft | 356 kts | 313° |
| 2026-05-07 08:33 | 17.11584 | -62.53274 | 20088 ft | 356 kts | 313° |
| 2026-05-07 08:33 | 17.13230 | -62.55210 | 20090 ft | 356 kts | 313° |
| 2026-05-07 08:34 | 17.14876 | -62.57148 | 20093 ft | 357 kts | 313° |
| 2026-05-07 08:34 | 17.16523 | -62.59088 | 20093 ft | 357 kts | 313° |
| 2026-05-07 08:34 | 17.18172 | -62.61032 | 20093 ft | 357 kts | 313° |
| 2026-05-07 08:34 | 17.19821 | -62.62973 | 20092 ft | 356 kts | 313° |
| 2026-05-07 08:35 | 17.21468 | -62.64910 | 20092 ft | 356 kts | 313° |
| 2026-05-07 08:35 | 17.23115 | -62.66846 | 20095 ft | 356 kts | 313° |
| 2026-05-07 08:35 | 17.24762 | -62.68784 | 20092 ft | 356 kts | 313° |
| 2026-05-07 08:35 | 17.26405 | -62.70720 | 20092 ft | 356 kts | 313° |
| 2026-05-07 08:36 | 17.28052 | -62.72659 | 20089 ft | 356 kts | 314° |
| 2026-05-07 08:36 | 17.29889 | -62.74379 | 20091 ft | 354 kts | 325° |
| 2026-05-07 08:36 | 17.32014 | -62.75669 | 20087 ft | 353 kts | 335° |
| 2026-05-07 08:36 | 17.34236 | -62.76766 | 20088 ft | 354 kts | 335° |
| 2026-05-07 08:37 | 17.36460 | -62.77869 | 20090 ft | 354 kts | 335° |
| 2026-05-07 08:37 | 17.38682 | -62.78976 | 20090 ft | 354 kts | 335° |
| 2026-05-07 08:37 | 17.40903 | -62.80089 | 20090 ft | 354 kts | 335° |
| 2026-05-07 08:37 | 17.43134 | -62.81208 | 20088 ft | 362 kts | 335° |
| 2026-05-07 08:38 | 17.45431 | -62.82357 | 20083 ft | 368 kts | 335° |
| 2026-05-07 08:38 | 17.47645 | -62.83729 | 20085 ft | 371 kts | 323° |
| 2026-05-07 08:38 | 17.49560 | -62.85549 | 20084 ft | 373 kts | 317° |
| 2026-05-07 08:38 | 17.51429 | -62.87434 | 20083 ft | 372 kts | 317° |
| 2026-05-07 08:39 | 17.53275 | -62.89296 | 19811 ft | 366 kts | 317° |
| 2026-05-07 08:39 | 17.55101 | -62.91137 | 19356 ft | 362 kts | 317° |
| 2026-05-07 08:39 | 17.56907 | -62.92958 | 18924 ft | 359 kts | 317° |
| 2026-05-07 08:39 | 17.58696 | -62.94763 | 18515 ft | 355 kts | 317° |
| 2026-05-07 08:40 | 17.60467 | -62.96554 | 18051 ft | 352 kts | 317° |
| 2026-05-07 08:40 | 17.62199 | -62.98305 | 17555 ft | 350 kts | 317° |
| 2026-05-07 08:40 | 17.63945 | -63.00068 | 17060 ft | 348 kts | 317° |
| 2026-05-07 08:40 | 17.65684 | -63.01824 | 16570 ft | 346 kts | 317° |
| 2026-05-07 08:41 | 17.67415 | -63.03571 | 16088 ft | 345 kts | 317° |
| 2026-05-07 08:41 | 17.69142 | -63.05312 | 15621 ft | 343 kts | 317° |
| 2026-05-07 08:41 | 17.70859 | -63.07044 | 15171 ft | 342 kts | 317° |
| 2026-05-07 08:41 | 17.72570 | -63.08773 | 14543 ft | 345 kts | 317° |
| 2026-05-07 08:42 | 17.74330 | -63.10549 | 13668 ft | 356 kts | 317° |
| 2026-05-07 08:42 | 17.76137 | -63.12373 | 12711 ft | 365 kts | 317° |
| 2026-05-07 08:42 | 17.77981 | -63.14238 | 11760 ft | 372 kts | 316° |
| 2026-05-07 08:42 | 17.79856 | -63.16138 | 10813 ft | 378 kts | 316° |
| 2026-05-07 08:43 | 17.81757 | -63.18062 | 9873 ft | 382 kts | 316° |
| 2026-05-07 08:43 | 17.83648 | -63.19973 | 9071 ft | 369 kts | 316° |
| 2026-05-07 08:43 | 17.85477 | -63.21819 | 8555 ft | 360 kts | 316° |
| 2026-05-07 08:43 | 17.87265 | -63.23628 | 8019 ft | 353 kts | 316° |
| 2026-05-07 08:44 | 17.89018 | -63.25405 | 7485 ft | 348 kts | 316° |
| 2026-05-07 08:44 | 17.90782 | -63.27115 | 6938 ft | 343 kts | 323° |
| 2026-05-07 08:44 | 17.92930 | -63.28143 | 6383 ft | 339 kts | 348° |
| 2026-05-07 08:44 | 17.95244 | -63.28575 | 5776 ft | 336 kts | 351° |
| 2026-05-07 08:45 | 17.97543 | -63.28941 | 5190 ft | 333 kts | 352° |
| 2026-05-07 08:45 | 17.99841 | -63.29043 | 4581 ft | 329 kts | 10° |
| 2026-05-07 08:45 | 18.01889 | -63.28113 | 3956 ft | 322 kts | 40° |
| 2026-05-07 08:45 | 18.03165 | -63.26325 | 3452 ft | 296 kts | 72° |
| 2026-05-07 08:46 | 18.03497 | -63.24283 | 2962 ft | 275 kts | 89° |
| 2026-05-07 08:46 | 18.03459 | -63.22327 | 2465 ft | 261 kts | 92° |